• Join FlightAware (Why Join?)
  • Login
  • US Flag 
09:00AM EDT


 

Airport Tracker/Info


-or-


 

Live Flight TrackerFlight Track Log ✈ BAW2649 ✈ 02-Jul-2013 ✈ LATI / TIA - EGKK / LGW

Flight Track Log - Related Links

Times and Time Zones

All times are in EDT time to prevent confusion due to time zone crossing. See the BAW2649 flight status page for this flight to view local times or setup timezone preferences in your user account.

Time Position Orientation Groundspeed Altitude Reporting Facility
EDT Latitude Longitude Course Direction KTS MPH feet Rate Location/Type
12:04PM 41.8900 19.2620 314° West 394 453 16,100  Level FlightAware
12:05PM 41.9460 19.1840 314° West 394 453 16,700 1,740 Climbing FlightAware
12:06PM 42.0330 19.0290 307° West 418 481 19,400 1,920 Climbing FlightAware
12:07PM 42.1030 18.9100 308° West 442 509 20,800 1,500 Climbing FlightAware
12:08PM 42.1670 18.8010 308° West 445 512 22,100 1,440 Climbing FlightAware
12:09PM 42.2360 18.6830 308° West 450 518 23,300 1,140 Climbing FlightAware
12:10PM 42.2900 18.5910 308° West 459 528 23,900 960 Climbing FlightAware
12:10PM 42.3410 18.5030 308° West 462 532 24,600 1,260 Climbing FlightAware
12:11PM 42.3930 18.4140 308° West 457 526 25,600 1,380 Climbing FlightAware
12:12PM 42.4470 18.3210 308° West 456 525 26,500 1,260 Climbing FlightAware
12:12PM 42.5000 18.2290 308° West 453 521 27,400 1,380 Climbing FlightAware
12:13PM 42.5480 18.1440 307° West 450 518 28,300 1,320 Climbing FlightAware
12:14PM 42.6020 18.0520 309° West 446 513 29,300 1,200 Climbing FlightAware
12:14PM 42.6580 17.9430 305° West 448 516 30,100 1,260 Climbing FlightAware
12:15PM 42.6990 17.8590 304° West 440 506 31,100 1,320 Climbing FlightAware
12:16PM 42.7460 17.7620 303° West 437 503 31,900 1,080 Climbing FlightAware
12:16PM 42.7940 17.6660 304° West 437 503 32,600 1,020 Climbing FlightAware
12:17PM 42.8400 17.5750 305° West 433 498 33,400 1,320 Climbing FlightAware
12:18PM 42.8920 17.4740 305° West 428 493 34,500 1,320 Climbing FlightAware
12:19PM 42.9420 17.3750 305° West 425 489 35,300 960 Climbing FlightAware
12:19PM 42.9870 17.2860 305° West 424 488 35,900 480 Climbing FlightAware
12:20PM 43.0390 17.1900 307° West 423 487 36,000 60 Climbing FlightAware
12:21PM 43.0910 17.1000 308° West 426 490 36,000  Level FlightAware
12:21PM 43.1400 17.0130 308° West 426 490 36,000  Level FlightAware
12:22PM 43.1840 16.9350 308° West 426 490 36,000  Level FlightAware
12:23PM 43.2290 16.8550 308° West 426 490 36,000  Level FlightAware
12:23PM 43.2840 16.7570 308° West 427 491 36,000  Level FlightAware
12:24PM 43.3470 16.6450 308° West 428 493 36,000  Level FlightAware
12:25PM 43.3960 16.5560 307° West 427 491 36,000  Level FlightAware
12:26PM 43.4510 16.4580 308° West 428 493 36,000  Level FlightAware
12:26PM 43.4980 16.3720 307° West 429 494 36,000  Level FlightAware
12:27PM 43.5570 16.2650 307° West 429 494 36,000  Level FlightAware
12:28PM 43.6050 16.1780 307° West 429 494 36,000  Level FlightAware
12:29PM 43.6570 16.0840 307° West 426 490 36,000  Level FlightAware
12:29PM 43.7160 15.9770 307° West 423 487 36,000  Level FlightAware
12:30PM 43.7660 15.8850 307° West 418 481 36,000  Level FlightAware
12:31PM 43.8130 15.7990 307° West 425 489 36,000  Level FlightAware
12:31PM 43.8540 15.7220 306° West 419 482 36,000  Level FlightAware
12:32PM 43.9070 15.6250 307° West 418 481 36,000  Level FlightAware
12:33PM 43.9520 15.5410 307° West 416 479 36,000  Level FlightAware
12:33PM 44.0000 15.4510 307° West 416 479 36,000  Level FlightAware
12:34PM 44.0510 15.3570 307° West 417 480 36,000  Level FlightAware
12:35PM 44.0950 15.2730 306° West 419 482 36,000  Level FlightAware
12:36PM 44.1520 15.1680 307° West 419 482 36,000  Level FlightAware
12:36PM 44.1920 15.0910 306° West 419 482 36,000  Level FlightAware
12:37PM 44.2400 15.0050 308° West 426 490 36,000  Level FlightAware
12:38PM 44.2970 14.9300 317° Northwest 423 487 36,000  Level FlightAware
12:38PM 44.3630 14.8450 317° Northwest 422 486 36,000  Level FlightAware
12:39PM 44.4140 14.7780 317° Northwest 422 486 36,000  Level FlightAware
12:40PM 44.4840 14.6850 317° Northwest 427 491 36,000  Level FlightAware
12:41PM 44.5570 14.5870 316° Northwest 427 491 36,000  Level FlightAware
12:41PM 44.6100 14.5170 317° Northwest 428 493 36,000  Level FlightAware
12:42PM 44.6720 14.4310 315° West 428 493 36,000  Level FlightAware
12:43PM 44.7360 14.3440 316° Northwest 430 495 36,000  Level FlightAware
12:43PM 44.8060 14.2470 316° Northwest 430 495 36,000  Level FlightAware
12:44PM 44.8540 14.1580 307° West 429 494 36,000  Level FlightAware
12:45PM 44.8880 14.0590 296° West 430 495 36,000  Level FlightAware
12:45PM 44.9170 13.9700 295° West 430 495 36,000  Level FlightAware
12:46PM 44.9500 13.8690 295° West 427 491 36,000  Level FlightAware
12:47PM 44.9830 13.7690 295° West 423 487 36,000  Level FlightAware
12:47PM 45.0210 13.6530 295° West 421 484 36,000  Level FlightAware
12:48PM 45.0560 13.5450 295° West 421 484 36,000  Level FlightAware
12:49PM 45.0890 13.4430 295° West 422 486 36,000  Level FlightAware
12:50PM 45.1210 13.3420 294° West 418 481 36,000  Level FlightAware
12:50PM 45.1530 13.2420 294° West 418 481 36,000  Level FlightAware
12:51PM 45.1860 13.1390 294° West 418 481 36,000  Level FlightAware
12:52PM 45.2170 13.0400 294° West 420 483 36,000  Level FlightAware
12:52PM 45.2500 12.9360 294° West 421 484 36,000  Level FlightAware
12:53PM 45.2820 12.8350 294° West 422 486 36,000  Level FlightAware
12:54PM 45.3140 12.7320 294° West 422 486 36,000  Level FlightAware
12:54PM 45.3450 12.6320 294° West 420 483 36,000  Level FlightAware
12:55PM 45.3800 12.5210 294° West 420 483 36,000  Level FlightAware
12:56PM 45.4130 12.4140 294° West 421 484 36,000  Level FlightAware
12:56PM 45.4480 12.3000 294° West 421 484 36,000  Level FlightAware
12:57PM 45.4780 12.2030 294° West 420 483 36,000  Level FlightAware
12:58PM 45.5060 12.1110 294° West 419 482 36,000  Level FlightAware
12:58PM 45.5410 11.9950 293° West 419 482 36,000  Level FlightAware
12:59PM 45.5700 11.8980 293° West 420 483 36,000  Level FlightAware
01:00PM 45.5990 11.8050 294° West 420 483 36,000  Level FlightAware
01:00PM 45.6310 11.7010 294° West 420 483 36,000  Level FlightAware
01:01PM 45.6760 11.5970 302° West 425 489 36,000  Level FlightAware
01:02PM 45.7200 11.5060 305° West 426 490 36,000  Level FlightAware
01:02PM 45.7660 11.4120 305° West 424 488 36,000  Level FlightAware
01:03PM 45.8280 11.2840 305° West 422 486 36,000  Level FlightAware
01:04PM 45.8760 11.1850 305° West 422 486 36,000  Level FlightAware
01:05PM 45.9190 11.0950 305° West 423 487 36,000  Level FlightAware
01:05PM 45.9610 11.0080 305° West 425 489 36,000  Level FlightAware
01:06PM 46.0060 10.9130 304° West 424 488 36,000  Level FlightAware
01:07PM 46.0520 10.8180 305° West 415 478 36,000  Level FlightAware
01:07PM 46.0890 10.7390 304° West 404 465 36,000  Level FlightAware
01:08PM 46.1360 10.6390 304° West 409 471 36,000  Level FlightAware
01:09PM 46.1820 10.5420 304° West 408 470 36,000  Level FlightAware
01:09PM 46.2290 10.4400 304° West 405 466 36,000  Level FlightAware
01:10PM 46.2710 10.3520 305° West 404 465 36,000  Level FlightAware
01:11PM 46.3440 10.1820 302° West 395 455 36,000 -60 Level FlightAware
01:12PM 46.3710 10.1080 298° West 394 453 35,900 -120 Descending FlightAware
01:13PM 46.4060 10.0130 298° West 393 452 35,900 60 Level FlightAware
01:13PM 46.4520 9.8900 299° West 395 455 36,000 60 Climbing FlightAware
01:14PM 46.4820 9.8070 298° West 398 458 36,000  Level FlightAware
01:15PM 46.5240 9.6940 298° West 402 463 36,000  Level FlightAware
01:15PM 46.5530 9.6140 298° West 403 464 36,000  Level FlightAware
01:16PM 46.5860 9.5210 297° West 402 463 36,000  Level FlightAware
01:17PM 46.6270 9.4080 298° West 396 456 36,000  Level FlightAware
01:18PM 46.6620 9.3120 298° West 393 452 36,000  Level FlightAware
01:18PM 46.6930 9.2260 298° West 392 451 36,000  Level FlightAware
01:19PM 46.7290 9.1240 297° West 393 452 36,000  Level FlightAware
01:20PM 46.7640 9.0260 298° West 393 452 36,000  Level FlightAware
01:20PM 46.7930 8.9450 298° West 398 458 36,000  Level FlightAware
01:21PM 46.8300 8.8400 297° West 402 463 36,000  Level FlightAware
01:22PM 46.8660 8.7380 297° West 402 463 36,000  Level FlightAware
01:22PM 46.8990 8.6460 298° West 407 468 36,000  Level FlightAware
01:23PM 46.9350 8.5430 297° West 391 450 36,000  Level FlightAware
01:24PM 46.9690 8.4450 297° West 391 450 36,000  Level FlightAware
01:24PM 47.0010 8.3530 297° West 396 456 36,000  Level FlightAware
01:25PM 47.0330 8.2620 297° West 398 458 36,000  Level FlightAware
01:26PM 47.0770 8.1340 297° West 404 465 36,000  Level FlightAware
01:27PM 47.1150 8.0220 297° West 405 466 36,000  Level FlightAware
01:27PM 47.1430 7.9400 297° West 406 467 36,000  Level FlightAware
01:28PM 47.1750 7.8470 297° West 407 468 36,000  Level FlightAware
01:29PM 47.2080 7.7420 295° West 408 470 36,000  Level FlightAware
01:29PM 47.2490 7.6000 293° West 409 471 36,000  Level FlightAware
01:30PM 47.2840 7.4830 294° West 408 470 36,000  Level FlightAware
01:31PM 47.3130 7.3820 293° West 406 467 36,000  Level FlightAware
01:32PM 47.3470 7.2670 294° West 412 474 36,000  Level FlightAware
01:32PM 47.3780 7.1630 294° West 418 481 36,000  Level FlightAware
01:33PM 47.4160 7.0720 302° West 421 484 36,000  Level FlightAware
01:34PM 47.4690 6.9490 303° West 422 486 36,000  Level FlightAware
01:34PM 47.5010 6.8750 303° West 422 486 36,000  Level FlightAware
01:35PM 47.5360 6.7970 304° West 423 487 36,000  Level FlightAware
01:36PM 47.5940 6.6730 305° West 423 487 36,000  Level FlightAware
01:36PM 47.6440 6.5680 305° West 424 488 36,000  Level FlightAware
01:37PM 47.6830 6.4850 305° West 425 489 36,000  Level FlightAware
01:38PM 47.7340 6.3780 305° West 426 490 36,000  Level FlightAware
01:38PM 47.7850 6.2700 305° West 427 491 36,000  Level FlightAware
01:39PM 47.8250 6.1860 305° West 427 491 36,000  Level FlightAware
01:40PM 47.8610 6.1010 302° West 421 484 36,000  Level FlightAware
01:40PM 47.9060 5.9910 301° West 420 483 36,000  Level FlightAware
01:41PM 47.9470 5.8880 301° West 419 482 36,000  Level FlightAware
01:42PM 47.9820 5.8010 301° West 422 486 36,000  Level FlightAware
01:42PM 48.0300 5.6800 301° West 421 484 36,000  Level FlightAware
01:43PM 48.0650 5.5920 301° West 421 484 36,000  Level FlightAware
01:44PM 48.1000 5.5030 301° West 419 482 36,000  Level FlightAware
01:45PM 48.1560 5.3600 300° West 418 481 36,000  Level FlightAware
01:45PM 48.1890 5.2770 301° West 418 481 36,000  Level FlightAware
01:46PM 48.2380 5.1510 300° West 418 481 36,000  Level FlightAware
01:47PM 48.2780 5.0500 301° West 416 479 36,000  Level FlightAware
01:47PM 48.3130 4.9580 300° West 412 474 36,000  Level FlightAware
01:48PM 48.3560 4.8480 300° West 410 472 36,000  Level FlightAware
01:49PM 48.3910 4.7550 300° West 408 470 36,000  Level FlightAware
01:49PM 48.4350 4.6410 300° West 406 467 36,000  Level FlightAware
01:50PM 48.4750 4.5410 301° West 406 467 36,000  Level FlightAware
01:51PM 48.5380 4.4290 310° West 407 468 36,000  Level FlightAware
01:52PM 48.5830 4.3520 311° West 408 470 36,000  Level FlightAware
01:52PM 48.6390 4.2560 311° West 409 471 36,000  Level FlightAware
01:53PM 48.6910 4.1670 312° West 411 473 36,000  Level FlightAware
01:54PM 48.7350 4.0900 311° West 413 475 36,000  Level FlightAware
01:54PM 48.7890 3.9980 312° West 414 476 36,000  Level FlightAware
01:55PM 48.8510 3.8890 311° West 414 476 36,000  Level FlightAware
01:56PM 48.8940 3.8140 311° West 414 476 36,000  Level FlightAware
01:56PM 48.9480 3.7200 311° West 414 476 36,000  Level FlightAware
01:57PM 49.0210 3.5910 311° West 415 478 36,000  Level FlightAware
01:58PM 49.0700 3.5050 311° West 415 478 36,000  Level FlightAware
01:59PM 49.1160 3.4230 311° West 415 478 36,000  Level FlightAware
01:59PM 49.1740 3.3200 311° West 416 479 36,000 -120 Level FlightAware
02:00PM 49.2329 3.2139 311° West 1 1 35,900  Descending FlightAware UK
02:00PM 49.2370 3.2080 311° West 415 478 36,000 120 Climbing FlightAware
02:01PM 49.2910 3.1120 311° West 415 478 36,000 -120 Level FlightAware
02:02PM 49.3441 3.0085 311° West 1 1 35,900  Descending FlightAware UK
02:02PM 49.3440 3.0170 311° West 415 478 36,000 120 Climbing FlightAware
02:02PM 49.3850 2.9430 310° West 415 478 36,000  Level FlightAware
02:03PM 49.4370 2.8490 310° West 415 478 36,000  Level FlightAware
02:04PM 49.4930 2.7439 310° West 1 1 36,000  Level FlightAware UK
02:04PM 49.4930 2.7480 310° West 415 478 36,000  Level FlightAware
02:04PM 49.5430 2.6560 310° West 414 476 36,000  Level FlightAware
02:05PM 49.5930 2.5640 310° West 413 475 36,000 -180 Level FlightAware
02:05PM 49.5971 2.5561 310° West 452 520 35,900 -240 Descending FlightAware UK
02:06PM 49.6341 2.4896 310° West 454 522 35,900 120 Level FlightAware UK
02:06PM 49.6470 2.4650 310° West 413 475 36,000 -120 Climbing FlightAware
02:06PM 49.7000 2.3680 310° West 415 478 35,800 -540 Descending FlightAware
02:07PM 49.7420 2.2900 310° West 416 479 35,300 -600 Descending FlightAware
02:08PM 49.8040 2.1760 310° West 425 489 35,000 -360 Descending FlightAware
02:08PM 49.8473 2.0907 310° West 458 527 34,900  Descending FlightAware UK
02:08PM 49.8490 2.0820 310° West 419 482 35,000 180 Climbing FlightAware
02:09PM 49.8750 2.0170 310° West 418 481 35,000 -240 Level FlightAware
02:09PM 49.8826 1.9977 310° West 456 525 34,900 -180 Descending FlightAware UK
02:10PM 49.9186 1.9058 310° West 458 527 34,900 120 Level FlightAware UK
02:10PM 49.9230 1.8930 310° West 418 481 35,000 120 Climbing FlightAware
02:10PM 49.9670 1.8010 307° West 422 486 35,000  Level FlightAware
02:11PM 50.0130 1.7240 313° West 414 476 35,000  Level FlightAware
02:12PM 50.0740 1.6210 313° West 421 484 35,000 -900 Level FlightAware
02:12PM 50.1320 1.5233 313° West 454 522 33,700 -1,860 Descending FlightAware UK
02:12PM 50.1290 1.5270 313° West 419 482 33,700 -3,960 Level FlightAware
02:13PM 50.1790 1.4429 313° West 462 532 31,400 -3,720 Descending FlightAware UK
02:13PM 50.1920 1.4190 313° West 434 499 30,800 -3,480 Descending FlightAware
02:14PM 50.2460 1.3280 313° West 442 509 28,400 -2,880 Descending FlightAware
02:15PM 50.3040 1.2420 317° Northwest 426 490 27,000 -2,340 Descending FlightAware
02:15PM 50.3648 1.1511 317° Northwest 440 506 25,300 -2,400 Descending FlightAware UK
02:15PM 50.3700 1.1450 317° Northwest 412 474 25,200 -3,720 Descending FlightAware
02:16PM 50.4152 1.0790 317° Northwest 440 506 23,100 -4,080 Descending FlightAware UK
02:16PM 50.4250 1.0640 317° Northwest 424 488 22,500 -3,420 Descending FlightAware
02:17PM 50.4840 0.9750 316° Northwest 426 490 20,200 -2,940 Descending FlightAware
02:17PM 50.5370 0.8940 316° Northwest 409 471 18,600 -2,040 Descending FlightAware
02:18PM 50.6113 0.7799 316° Northwest 388 447 17,100 -1,560 Descending FlightAware UK
02:18PM 50.6170 0.7710 316° Northwest 368 423 17,000 -840 Descending FlightAware
02:19PM 50.6542 0.7142 316° Northwest 344 396 16,600 -840 Descending FlightAware ADS-B
02:19PM 50.6877 0.6625 316° Northwest 325 374 16,200 -840 Descending FlightAware ADS-B
02:20PM 50.7197 0.6135 316° Northwest 306 352 15,800 -1,140 Descending FlightAware ADS-B
02:20PM 50.7497 0.5669 316° Northwest 298 343 15,100 -1,020 Descending FlightAware ADS-B
02:21PM 50.7823 0.5165 316° Northwest 279 321 14,700 -660 Descending FlightAware ADS-B
02:21PM 50.8112 0.4715 315° West 264 304 14,400 -780 Descending FlightAware ADS-B
02:22PM 50.8299 0.4424 316° Northwest 257 296 14,000 -1,140 Descending FlightAware ADS-B
02:22PM 50.8563 0.4012 315° West 254 292 13,400 -1,080 Descending FlightAware ADS-B
02:23PM 50.8817 0.3617 316° Northwest 251 289 12,900 -1,080 Descending FlightAware ADS-B
02:23PM 50.9071 0.3220 315° West 247 284 12,300 -1,320 Descending FlightAware ADS-B
02:24PM 50.9316 0.2837 315° West 247 284 11,600 -1,200 Descending FlightAware ADS-B
02:24PM 50.9486 0.2576 316° Northwest 241 277 11,300 -840 Descending FlightAware ADS-B
02:24PM 50.9576 0.2482 326° Northwest 244 281 11,200 -900 Descending FlightAware ADS-B
02:24PM 50.9628 0.2447 337° Northwest 247 284 11,100 -900 Descending FlightAware ADS-B
02:25PM 50.9718 0.2416 348° North 252 290 11,000 -900 Descending FlightAware ADS-B
02:25PM 50.9789 0.2415 360° North 254 292 10,900 -1,140 Descending FlightAware ADS-B
02:25PM 50.9857 0.2435 10° North 258 297 10,800 -1,140 Descending FlightAware ADS-B
02:25PM 50.9965 0.2511 24° Northeast 265 305 10,600 -1,320 Descending FlightAware ADS-B
02:25PM 51.0052 0.2634 42° Northeast 274 315 10,400 -960 Descending FlightAware ADS-B
02:26PM 51.0127 0.3170 77° East 276 318 10,000 -720 Descending FlightAware ADS-B
02:26PM 50.9976 0.3565 121° Southeast 267 307 9,800 -600 Descending FlightAware ADS-B
02:26PM 50.9755 0.4010 128° Southeast 266 306 9,500 -840 Descending FlightAware ADS-B
02:27PM 50.9435 0.4221 128° Southeast 242 278 9,000 -960 Descending FlightAware UK
02:27PM 50.9450 0.4230 128° Southeast 239 275 9,000 -1,140 Level FlightAware
02:27PM 50.9300 0.4130 203° Southwest 223 257 8,700 -960 Descending FlightAware
02:28PM 50.9200 0.3700 250° West 208 239 8,300 -900 Descending FlightAware
02:28PM 50.9200 0.3530 270° West 208 239 8,100 -480 Descending FlightAware
02:28PM 50.9210 0.3060 272° West 209 241 8,000 -120 Descending FlightAware
02:29PM 50.9210 0.2660 270° West 209 241 8,000  Level FlightAware
02:29PM 50.9220 0.2200 272° West 210 242 8,000  Level FlightAware
02:30PM 50.9220 0.2040 270° West 210 242 8,000  Level FlightAware
02:30PM 50.9250 0.1590 270° West 215 247 8,000  Level FlightAware
02:30PM 50.9268 0.1555 270° West 238 274 8,000 -480 Level FlightAware UK
02:30PM 50.9370 0.1250 299° West 214 246 7,800 -960 Descending FlightAware
02:31PM 50.9490 0.0900 299° West 219 252 7,200 -1,560 Descending FlightAware
02:31PM 50.9710 0.0580 318° Northwest 244 281 6,400 -1,200 Descending FlightAware
02:32PM 50.9790 0.0550 347° North 257 296 6,200 -1,140 Descending FlightAware
02:32PM 51.0230 0.0980 32° Northeast 271 312 5,400 -1,140 Descending FlightAware
02:33PM 51.0620 0.1730 50° Northeast 260 299 4,800 -600 Descending FlightAware
02:33PM 51.0810 0.2080 49° Northeast 247 284 4,700 -360 Descending FlightAware
02:34PM 51.0910 0.2170 29° Northeast 238 274 4,600 -480 Descending FlightAware
02:34PM 51.1200 0.2170 360° North 211 243 4,400 -540 Descending FlightAware
02:35PM 51.1500 0.2110 353° North 209 241 4,100 -540 Descending FlightAware
02:35PM 51.1640 0.2060 347° North 208 239 4,000 -480 Descending FlightAware
02:35PM 51.1710 0.1970 321° Northwest 188 216 3,900 -480 Descending FlightAware
02:35PM 51.1780 0.1810 305° West 176 203 3,800 -420 Descending FlightAware
02:36PM 51.1840 0.1640 299° West 178 205 3,700 -420 Descending FlightAware
02:36PM 51.1900 0.1450 297° West 163 188 3,600 -300 Descending FlightAware
02:36PM 51.1890 0.1150 267° West 135 155 3,500 -360 Descending FlightAware
02:37PM 51.1860 0.0890 260° West 132 152 3,300 -360 Descending FlightAware
02:37PM 51.1830 0.0660 258° West 130 150 3,200 -360 Descending FlightAware
02:38PM 51.1790 0.0370 258° West 132 152 3,000 -600 Descending FlightAware
02:38PM 51.1784 0.0308 258° West 166 191 2,900 -720 Descending FlightAware UK
02:38PM 51.1760 0.0130 259° West 133 153 2,700 -660 Descending FlightAware
02:39PM 51.1710 -0.0210 257° West 138 159 2,300 -720 Descending FlightAware
02:39PM 51.1680 -0.0460 259° West 138 159 2,000 -780 Descending FlightAware
02:40PM 51.1640 -0.0760 258° West 129 148 1,600 -720 Descending FlightAware
02:40PM 51.1610 -0.0940 255° West 126 145 1,400 -780 Descending FlightAware
02:40PM 51.1563 -0.1308 255° West 140 161 900 -720 Descending FlightAware UK
02:41PM 51.1560 -0.1350 255° West 127 146 900 -780 Level FlightAware
02:41PM 51.1501 -0.1747 255° West 136 157 300 -600 Descending FlightAware UK
02:41PM 51.1510 -0.1670 255° West 128 147 500 360 Climbing FlightAware
02:42PM 51.1480 -0.1890 258° West 128 147 500  Level FlightAware
02:45PM 51.1481 -0.1903 274° West  Level Estimated